sensor_id;sensor_type;location;lat;lon;timestamp;pressure;altitude;pressure_sealevel;temperature;humidity
55490;BME280;44029;52.956;4.772;2023-02-10T00:00:56;103527.69;;;6.45;100.00
55490;BME280;44029;52.956;4.772;2023-02-10T00:03:26;103517.03;;;6.52;100.00
55490;BME280;44029;52.956;4.772;2023-02-10T00:05:51;103529.84;;;6.60;100.00
55490;BME280;44029;52.956;4.772;2023-02-10T00:08:16;103523.56;;;6.59;100.00
55490;BME280;44029;52.956;4.772;2023-02-10T00:10:42;103517.09;;;6.60;100.00
55490;BME280;44029;52.956;4.772;2023-02-10T00:13:07;103514.75;;;6.65;100.00
55490;BME280;44029;52.956;4.772;2023-02-10T00:15:32;103531.09;;;6.65;100.00
55490;BME280;44029;52.956;4.772;2023-02-10T00:17:58;103531.72;;;6.59;100.00
55490;BME280;44029;52.956;4.772;2023-02-10T00:20:23;103528.53;;;6.46;100.00
55490;BME280;44029;52.956;4.772;2023-02-10T00:22:48;103532.91;;;6.38;100.00
55490;BME280;44029;52.956;4.772;2023-02-10T00:25:14;103523.47;;;6.51;100.00
55490;BME280;44029;52.956;4.772;2023-02-10T00:27:39;103526.28;;;6.59;100.00
55490;BME280;44029;52.956;4.772;2023-02-10T00:30:05;103530.81;;;6.50;100.00
55490;BME280;44029;52.956;4.772;2023-02-10T00:32:30;103534.06;;;6.54;100.00
55490;BME280;44029;52.956;4.772;2023-02-10T00:34:55;103544.41;;;6.50;100.00
55490;BME280;44029;52.956;4.772;2023-02-10T00:37:21;103550.31;;;6.46;100.00
55490;BME280;44029;52.956;4.772;2023-02-10T00:39:46;103553.38;;;6.43;100.00
55490;BME280;44029;52.956;4.772;2023-02-10T00:42:11;103558.34;;;6.47;100.00
55490;BME280;44029;52.956;4.772;2023-02-10T00:44:37;103552.03;;;6.47;100.00
55490;BME280;44029;52.956;4.772;2023-02-10T00:47:02;103552.69;;;6.41;100.00
55490;BME280;44029;52.956;4.772;2023-02-10T00:49:27;103549.56;;;6.35;100.00
55490;BME280;44029;52.956;4.772;2023-02-10T00:51:53;103549.06;;;6.40;100.00
55490;BME280;44029;52.956;4.772;2023-02-10T00:54:18;103551.59;;;6.33;100.00
55490;BME280;44029;52.956;4.772;2023-02-10T00:56:44;103563.25;;;6.44;100.00
55490;BME280;44029;52.956;4.772;2023-02-10T00:59:12;103556.06;;;6.61;100.00
55490;BME280;44029;52.956;4.772;2023-02-10T01:01:38;103552.59;;;6.50;100.00
55490;BME280;44029;52.956;4.772;2023-02-10T01:04:04;103557.19;;;6.50;100.00
55490;BME280;44029;52.956;4.772;2023-02-10T01:06:29;103547.69;;;6.54;100.00
55490;BME280;44029;52.956;4.772;2023-02-10T01:08:55;103562.94;;;6.47;100.00
55490;BME280;44029;52.956;4.772;2023-02-10T01:11:20;103561.53;;;6.43;100.00
55490;BME280;44029;52.956;4.772;2023-02-10T01:13:45;103568.91;;;6.32;100.00
55490;BME280;44029;52.956;4.772;2023-02-10T01:16:14;103578.47;;;6.36;100.00
55490;BME280;44029;52.956;4.772;2023-02-10T01:18:42;103574.34;;;6.32;100.00
55490;BME280;44029;52.956;4.772;2023-02-10T01:21:09;103576.56;;;6.47;100.00
55490;BME280;44029;52.956;4.772;2023-02-10T01:23:35;103581.59;;;6.42;100.00
55490;BME280;44029;52.956;4.772;2023-02-10T01:26:01;103571.34;;;6.53;100.00
55490;BME280;44029;52.956;4.772;2023-02-10T01:28:27;103563.19;;;6.53;100.00
55490;BME280;44029;52.956;4.772;2023-02-10T01:30:52;103562.78;;;6.48;100.00
55490;BME280;44029;52.956;4.772;2023-02-10T01:33:17;103569.94;;;6.31;100.00
55490;BME280;44029;52.956;4.772;2023-02-10T01:35:43;103573.97;;;6.27;100.00
55490;BME280;44029;52.956;4.772;2023-02-10T01:38:08;103580.88;;;6.22;100.00
55490;BME280;44029;52.956;4.772;2023-02-10T01:40:34;103585.78;;;6.18;100.00
55490;BME280;44029;52.956;4.772;2023-02-10T01:42:59;103597.28;;;6.12;100.00
55490;BME280;44029;52.956;4.772;2023-02-10T01:45:33;103594.19;;;6.25;100.00
55490;BME280;44029;52.956;4.772;2023-02-10T01:47:59;103600.00;;;6.12;100.00
55490;BME280;44029;52.956;4.772;2023-02-10T01:50:29;103604.81;;;6.18;100.00
55490;BME280;44029;52.956;4.772;2023-02-10T01:52:57;103595.88;;;6.08;100.00
55490;BME280;44029;52.956;4.772;2023-02-10T01:55:26;103596.56;;;6.10;100.00
55490;BME280;44029;52.956;4.772;2023-02-10T01:57:55;103591.06;;;6.19;100.00
55490;BME280;44029;52.956;4.772;2023-02-10T02:00:22;103582.13;;;6.27;100.00
55490;BME280;44029;52.956;4.772;2023-02-10T02:02:49;103590.38;;;6.17;100.00
55490;BME280;44029;52.956;4.772;2023-02-10T02:05:27;103589.28;;;6.28;100.00
55490;BME280;44029;52.956;4.772;2023-02-10T02:07:54;103590.88;;;6.03;100.00
55490;BME280;44029;52.956;4.772;2023-02-10T02:10:23;103599.84;;;6.13;100.00
55490;BME280;44029;52.956;4.772;2023-02-10T02:13:02;103603.13;;;6.17;100.00
55490;BME280;44029;52.956;4.772;2023-02-10T02:15:35;103597.13;;;6.13;100.00
55490;BME280;44029;52.956;4.772;2023-02-10T02:31:54;103615.47;;;6.11;100.00
55490;BME280;44029;52.956;4.772;2023-02-10T02:34:56;103620.59;;;6.14;100.00
55490;BME280;44029;52.956;4.772;2023-02-10T02:37:34;103610.41;;;5.89;100.00
55490;BME280;44029;52.956;4.772;2023-02-10T02:40:02;103611.50;;;6.06;100.00
55490;BME280;44029;52.956;4.772;2023-02-10T02:42:30;103613.75;;;6.10;100.00
55490;BME280;44029;52.956;4.772;2023-02-10T02:53:19;103618.50;;;6.08;100.00
55490;BME280;44029;52.956;4.772;2023-02-10T02:56:07;103617.66;;;6.08;100.00
55490;BME280;44029;52.956;4.772;2023-02-10T03:01:32;103617.09;;;6.04;100.00
55490;BME280;44029;52.956;4.772;2023-02-10T03:04:00;103617.69;;;5.88;100.00
55490;BME280;44029;52.956;4.772;2023-02-10T03:06:26;103606.59;;;5.72;100.00
55490;BME280;44029;52.956;4.772;2023-02-10T03:08:52;103607.34;;;5.74;100.00
55490;BME280;44029;52.956;4.772;2023-02-10T03:11:17;103615.19;;;5.77;100.00
55490;BME280;44029;52.956;4.772;2023-02-10T03:13:43;103613.06;;;5.71;100.00
55490;BME280;44029;52.956;4.772;2023-02-10T03:16:08;103612.31;;;5.78;100.00
55490;BME280;44029;52.956;4.772;2023-02-10T03:18:33;103612.03;;;5.72;100.00
55490;BME280;44029;52.956;4.772;2023-02-10T03:20:59;103611.34;;;5.70;100.00
55490;BME280;44029;52.956;4.772;2023-02-10T03:23:24;103616.06;;;5.68;100.00
55490;BME280;44029;52.956;4.772;2023-02-10T03:25:50;103615.22;;;5.67;100.00
55490;BME280;44029;52.956;4.772;2023-02-10T03:28:15;103631.09;;;5.72;100.00
55490;BME280;44029;52.956;4.772;2023-02-10T03:30:41;103616.91;;;5.78;100.00
55490;BME280;44029;52.956;4.772;2023-02-10T03:33:13;103610.16;;;5.82;100.00
55490;BME280;44029;52.956;4.772;2023-02-10T03:35:39;103616.91;;;5.78;100.00
55490;BME280;44029;52.956;4.772;2023-02-10T03:38:06;103617.88;;;5.87;100.00
55490;BME280;44029;52.956;4.772;2023-02-10T03:40:32;103618.72;;;5.87;100.00
55490;BME280;44029;52.956;4.772;2023-02-10T03:42:57;103619.34;;;5.71;100.00
55490;BME280;44029;52.956;4.772;2023-02-10T03:45:23;103614.47;;;5.75;100.00
55490;BME280;44029;52.956;4.772;2023-02-10T03:47:48;103617.75;;;5.78;100.00
55490;BME280;44029;52.956;4.772;2023-02-10T03:50:13;103616.50;;;5.73;100.00
55490;BME280;44029;52.956;4.772;2023-02-10T03:52:39;103613.34;;;5.68;100.00
55490;BME280;44029;52.956;4.772;2023-02-10T03:55:05;103611.66;;;5.67;100.00
55490;BME280;44029;52.956;4.772;2023-02-10T03:57:30;103606.22;;;5.67;100.00
55490;BME280;44029;52.956;4.772;2023-02-10T03:59:56;103600.03;;;5.74;100.00
55490;BME280;44029;52.956;4.772;2023-02-10T04:02:21;103607.16;;;5.85;100.00
55490;BME280;44029;52.956;4.772;2023-02-10T04:04:46;103606.25;;;5.94;100.00
55490;BME280;44029;52.956;4.772;2023-02-10T04:07:12;103605.25;;;5.95;100.00
55490;BME280;44029;52.956;4.772;2023-02-10T04:09:37;103596.19;;;5.95;100.00
55490;BME280;44029;52.956;4.772;2023-02-10T04:12:03;103597.38;;;5.92;100.00
55490;BME280;44029;52.956;4.772;2023-02-10T04:14:28;103597.38;;;5.92;100.00
55490;BME280;44029;52.956;4.772;2023-02-10T04:16:53;103599.53;;;5.89;100.00
55490;BME280;44029;52.956;4.772;2023-02-10T04:19:19;103613.16;;;5.79;100.00
55490;BME280;44029;52.956;4.772;2023-02-10T04:21:44;103599.81;;;5.95;100.00
55490;BME280;44029;52.956;4.772;2023-02-10T04:24:10;103608.25;;;5.92;100.00
55490;BME280;44029;52.956;4.772;2023-02-10T04:26:35;103603.41;;;5.86;100.00
55490;BME280;44029;52.956;4.772;2023-02-10T04:29:00;103613.03;;;5.80;100.00
55490;BME280;44029;52.956;4.772;2023-02-10T04:31:26;103605.69;;;5.81;100.00
55490;BME280;44029;52.956;4.772;2023-02-10T04:33:51;103614.44;;;5.85;100.00
55490;BME280;44029;52.956;4.772;2023-02-10T04:36:16;103612.03;;;5.81;100.00
55490;BME280;44029;52.956;4.772;2023-02-10T04:38:42;103607.03;;;5.77;100.00
55490;BME280;44029;52.956;4.772;2023-02-10T04:41:07;103603.16;;;5.79;100.00
55490;BME280;44029;52.956;4.772;2023-02-10T04:43:33;103600.38;;;5.89;100.00
55490;BME280;44029;52.956;4.772;2023-02-10T04:45:59;103599.34;;;5.90;100.00
55490;BME280;44029;52.956;4.772;2023-02-10T04:48:24;103595.94;;;5.98;100.00
55490;BME280;44029;52.956;4.772;2023-02-10T04:50:49;103604.50;;;5.93;100.00
55490;BME280;44029;52.956;4.772;2023-02-10T04:53:15;103599.50;;;5.98;100.00
55490;BME280;44029;52.956;4.772;2023-02-10T04:55:41;103603.50;;;5.94;100.00
55490;BME280;44029;52.956;4.772;2023-02-10T04:58:06;103597.81;;;5.88;100.00
55490;BME280;44029;52.956;4.772;2023-02-10T05:00:32;103602.09;;;5.90;100.00
55490;BME280;44029;52.956;4.772;2023-02-10T05:02:57;103603.88;;;5.81;100.00
55490;BME280;44029;52.956;4.772;2023-02-10T05:05:23;103595.56;;;5.83;100.00
55490;BME280;44029;52.956;4.772;2023-02-10T05:07:50;103593.97;;;5.80;100.00
55490;BME280;44029;52.956;4.772;2023-02-10T05:10:16;103600.25;;;5.81;100.00
55490;BME280;44029;52.956;4.772;2023-02-10T05:12:41;103608.28;;;5.82;100.00
55490;BME280;44029;52.956;4.772;2023-02-10T05:15:07;103608.00;;;5.86;100.00
55490;BME280;44029;52.956;4.772;2023-02-10T05:17:33;103604.72;;;5.82;100.00
55490;BME280;44029;52.956;4.772;2023-02-10T05:19:59;103610.56;;;5.87;100.00
55490;BME280;44029;52.956;4.772;2023-02-10T05:22:24;103609.72;;;5.87;100.00
55490;BME280;44029;52.956;4.772;2023-02-10T05:24:55;103609.53;;;5.88;100.00
55490;BME280;44029;52.956;4.772;2023-02-10T05:27:22;103603.63;;;6.03;100.00
55490;BME280;44029;52.956;4.772;2023-02-10T05:29:48;103599.38;;;6.00;100.00
55490;BME280;44029;52.956;4.772;2023-02-10T05:32:13;103600.75;;;6.04;100.00
55490;BME280;44029;52.956;4.772;2023-02-10T05:34:39;103598.47;;;5.99;100.00
55490;BME280;44029;52.956;4.772;2023-02-10T05:37:04;103598.91;;;5.95;100.00
55490;BME280;44029;52.956;4.772;2023-02-10T05:39:30;103603.22;;;5.97;100.00
55490;BME280;44029;52.956;4.772;2023-02-10T05:41:56;103604.59;;;6.11;100.00
55490;BME280;44029;52.956;4.772;2023-02-10T05:44:23;103602.28;;;6.16;100.00
55490;BME280;44029;52.956;4.772;2023-02-10T05:46:49;103599.09;;;6.21;100.00
55490;BME280;44029;52.956;4.772;2023-02-10T05:49:15;103605.16;;;6.15;100.00
55490;BME280;44029;52.956;4.772;2023-02-10T05:51:41;103610.47;;;6.07;100.00
55490;BME280;44029;52.956;4.772;2023-02-10T05:54:06;103610.03;;;6.11;100.00
55490;BME280;44029;52.956;4.772;2023-02-10T05:56:32;103611.44;;;6.15;100.00
55490;BME280;44029;52.956;4.772;2023-02-10T05:58:58;103616.25;;;6.04;100.00
55490;BME280;44029;52.956;4.772;2023-02-10T06:01:24;103610.63;;;6.05;100.00
55490;BME280;44029;52.956;4.772;2023-02-10T06:03:49;103605.75;;;6.09;100.00
55490;BME280;44029;52.956;4.772;2023-02-10T06:06:14;103604.47;;;6.03;100.00
55490;BME280;44029;52.956;4.772;2023-02-10T06:08:41;103617.34;;;6.11;100.00
55490;BME280;44029;52.956;4.772;2023-02-10T06:11:07;103602.34;;;6.25;100.00
55490;BME280;44029;52.956;4.772;2023-02-10T06:13:32;103617.22;;;6.30;100.00
55490;BME280;44029;52.956;4.772;2023-02-10T06:15:57;103623.63;;;6.39;100.00
55490;BME280;44029;52.956;4.772;2023-02-10T06:18:23;103607.69;;;6.44;100.00
55490;BME280;44029;52.956;4.772;2023-02-10T06:20:49;103610.97;;;6.48;100.00
55490;BME280;44029;52.956;4.772;2023-02-10T06:23:16;103610.78;;;6.49;100.00
55490;BME280;44029;52.956;4.772;2023-02-10T06:25:42;103608.94;;;6.50;100.00
55490;BME280;44029;52.956;4.772;2023-02-10T06:28:08;103611.16;;;6.54;100.00
55490;BME280;44029;52.956;4.772;2023-02-10T06:30:34;103614.53;;;6.48;100.00
55490;BME280;44029;52.956;4.772;2023-02-10T06:32:59;103614.97;;;6.44;100.00
55490;BME280;44029;52.956;4.772;2023-02-10T06:35:24;103589.56;;;6.35;100.00
55490;BME280;44029;52.956;4.772;2023-02-10T06:37:50;103589.84;;;6.32;100.00
55490;BME280;44029;52.956;4.772;2023-02-10T06:40:15;103595.22;;;6.42;100.00
55490;BME280;44029;52.956;4.772;2023-02-10T06:42:41;103603.47;;;6.50;100.00
55490;BME280;44029;52.956;4.772;2023-02-10T06:45:06;103618.19;;;6.57;100.00
55490;BME280;44029;52.956;4.772;2023-02-10T06:47:34;103609.53;;;6.44;100.00
55490;BME280;44029;52.956;4.772;2023-02-10T06:49:59;103629.63;;;6.43;100.00
55490;BME280;44029;52.956;4.772;2023-02-10T06:52:24;103629.28;;;6.46;100.00
55490;BME280;44029;52.956;4.772;2023-02-10T06:54:52;103626.75;;;6.44;100.00
55490;BME280;44029;52.956;4.772;2023-02-10T06:57:17;103623.38;;;6.32;100.00
55490;BME280;44029;52.956;4.772;2023-02-10T06:59:43;103624.75;;;6.18;100.00
55490;BME280;44029;52.956;4.772;2023-02-10T07:02:10;103637.78;;;6.43;100.00
55490;BME280;44029;52.956;4.772;2023-02-10T07:04:36;103630.44;;;6.25;100.00
55490;BME280;44029;52.956;4.772;2023-02-10T07:07:01;103633.47;;;6.22;100.00
55490;BME280;44029;52.956;4.772;2023-02-10T07:09:27;103638.38;;;6.18;100.00
55490;BME280;44029;52.956;4.772;2023-02-10T07:11:53;103635.50;;;6.20;100.00
55490;BME280;44029;52.956;4.772;2023-02-10T07:14:18;103630.56;;;6.24;100.00
55490;BME280;44029;52.956;4.772;2023-02-10T07:16:43;103636.91;;;6.24;100.00
55490;BME280;44029;52.956;4.772;2023-02-10T07:19:09;103635.50;;;6.20;100.00
55490;BME280;44029;52.956;4.772;2023-02-10T07:21:35;103637.75;;;6.25;100.00
55490;BME280;44029;52.956;4.772;2023-02-10T07:24:00;103639.56;;;6.34;100.00
55490;BME280;44029;52.956;4.772;2023-02-10T07:26:27;103646.34;;;6.48;100.00
55490;BME280;44029;52.956;4.772;2023-02-10T07:28:52;103653.59;;;6.57;100.00
55490;BME280;44029;52.956;4.772;2023-02-10T07:31:18;103656.41;;;6.65;100.00
55490;BME280;44029;52.956;4.772;2023-02-10T07:33:43;103647.53;;;6.63;100.00
55490;BME280;44029;52.956;4.772;2023-02-10T07:36:09;103645.03;;;6.70;100.00
55490;BME280;44029;52.956;4.772;2023-02-10T07:38:34;103646.91;;;6.69;100.00
55490;BME280;44029;52.956;4.772;2023-02-10T07:41:00;103644.97;;;6.80;100.00
55490;BME280;44029;52.956;4.772;2023-02-10T07:43:25;103647.34;;;7.01;100.00
55490;BME280;44029;52.956;4.772;2023-02-10T07:45:51;103644.06;;;7.15;100.00
55490;BME280;44029;52.956;4.772;2023-02-10T07:48:17;103638.91;;;7.30;100.00
55490;BME280;44029;52.956;4.772;2023-02-10T07:50:43;103634.28;;;7.04;100.00
55490;BME280;44029;52.956;4.772;2023-02-10T07:53:09;103628.44;;;6.99;100.00
55490;BME280;44029;52.956;4.772;2023-02-10T07:55:36;103638.38;;;7.08;100.00
55490;BME280;44029;52.956;4.772;2023-02-10T07:58:01;103640.03;;;7.01;100.00
55490;BME280;44029;52.956;4.772;2023-02-10T08:00:27;103644.63;;;7.19;100.00
55490;BME280;44029;52.956;4.772;2023-02-10T08:02:52;103650.69;;;7.12;100.00
55490;BME280;44029;52.956;4.772;2023-02-10T08:05:18;103648.50;;;7.16;100.00
55490;BME280;44029;52.956;4.772;2023-02-10T08:07:43;103647.00;;;7.22;100.00
55490;BME280;44029;52.956;4.772;2023-02-10T08:10:08;103640.97;;;7.62;100.00
55490;BME280;44029;52.956;4.772;2023-02-10T08:12:34;103646.00;;;7.49;100.00
55490;BME280;44029;52.956;4.772;2023-02-10T08:14:59;103639.91;;;7.55;100.00
55490;BME280;44029;52.956;4.772;2023-02-10T08:17:25;103631.28;;;7.68;100.00
55490;BME280;44029;52.956;4.772;2023-02-10T08:19:50;103621.69;;;7.55;100.00
55490;BME280;44029;52.956;4.772;2023-02-10T08:22:15;103617.22;;;7.54;100.00
55490;BME280;44029;52.956;4.772;2023-02-10T08:24:41;103621.31;;;7.50;100.00
55490;BME280;44029;52.956;4.772;2023-02-10T08:27:07;103630.34;;;7.51;100.00
55490;BME280;44029;52.956;4.772;2023-02-10T08:29:32;103629.78;;;7.73;100.00
55490;BME280;44029;52.956;4.772;2023-02-10T08:31:58;103634.06;;;7.76;100.00
55490;BME280;44029;52.956;4.772;2023-02-10T08:34:23;103630.00;;;7.80;100.00
55490;BME280;44029;52.956;4.772;2023-02-10T08:36:48;103631.34;;;7.76;100.00
55490;BME280;44029;52.956;4.772;2023-02-10T08:39:14;103633.63;;;7.89;100.00
55490;BME280;44029;52.956;4.772;2023-02-10T08:41:40;103617.41;;;7.87;100.00
55490;BME280;44029;52.956;4.772;2023-02-10T08:44:06;103612.63;;;7.89;100.00
55490;BME280;44029;52.956;4.772;2023-02-10T08:46:32;103627.94;;;7.74;100.00
55490;BME280;44029;52.956;4.772;2023-02-10T08:48:57;103615.38;;;7.89;100.00
55490;BME280;44029;52.956;4.772;2023-02-10T08:51:27;103614.69;;;7.87;100.00
55490;BME280;44029;52.956;4.772;2023-02-10T08:53:53;103621.78;;;7.72;100.00
55490;BME280;44029;52.956;4.772;2023-02-10T08:56:18;103619.69;;;7.66;100.00
55490;BME280;44029;52.956;4.772;2023-02-10T08:58:45;103615.66;;;7.78;100.00
55490;BME280;44029;52.956;4.772;2023-02-10T09:01:13;103612.50;;;7.99;100.00
55490;BME280;44029;52.956;4.772;2023-02-10T09:03:39;103610.75;;;7.90;100.00
55490;BME280;44029;52.956;4.772;2023-02-10T09:06:05;103619.00;;;7.98;100.00
55490;BME280;44029;52.956;4.772;2023-02-10T09:08:37;103610.97;;;8.05;100.00
55490;BME280;44029;52.956;4.772;2023-02-10T09:11:05;103613.28;;;8.26;100.00
55490;BME280;44029;52.956;4.772;2023-02-10T09:13:31;103601.81;;;8.14;100.00
55490;BME280;44029;52.956;4.772;2023-02-10T09:15:56;103612.25;;;8.19;100.00
55490;BME280;44029;52.956;4.772;2023-02-10T09:18:21;103609.34;;;8.20;100.00
55490;BME280;44029;52.956;4.772;2023-02-10T09:20:47;103616.53;;;8.29;100.00
55490;BME280;44029;52.956;4.772;2023-02-10T09:23:12;103607.38;;;8.47;100.00
55490;BME280;44029;52.956;4.772;2023-02-10T09:25:37;103599.72;;;8.42;100.00
55490;BME280;44029;52.956;4.772;2023-02-10T09:28:03;103597.34;;;8.56;100.00
55490;BME280;44029;52.956;4.772;2023-02-10T09:30:28;103601.06;;;8.55;100.00
55490;BME280;44029;52.956;4.772;2023-02-10T09:32:54;103598.53;;;8.69;100.00
55490;BME280;44029;52.956;4.772;2023-02-10T09:35:19;103598.19;;;8.73;100.00
55490;BME280;44029;52.956;4.772;2023-02-10T09:37:45;103600.59;;;8.84;100.00
55490;BME280;44029;52.956;4.772;2023-02-10T09:45:53;103599.72;;;8.92;100.00
55490;BME280;44029;52.956;4.772;2023-02-10T09:53:53;103605.00;;;8.60;100.00
55490;BME280;44029;52.956;4.772;2023-02-10T09:56:20;103604.84;;;8.86;100.00
55490;BME280;44029;52.956;4.772;2023-02-10T09:58:53;103602.47;;;8.83;100.00
55490;BME280;44029;52.956;4.772;2023-02-10T10:01:25;103603.84;;;8.63;100.00
55490;BME280;44029;52.956;4.772;2023-02-10T10:03:55;103610.16;;;8.88;100.00
55490;BME280;44029;52.956;4.772;2023-02-10T10:06:27;103609.31;;;8.87;100.00
55490;BME280;44029;52.956;4.772;2023-02-10T10:11:40;103614.97;;;8.94;100.00
55490;BME280;44029;52.956;4.772;2023-02-10T10:23:19;103610.16;;;8.96;100.00
55490;BME280;44029;52.956;4.772;2023-02-10T10:28:21;103617.69;;;9.11;100.00
55490;BME280;44029;52.956;4.772;2023-02-10T10:36:02;103618.69;;;9.18;100.00
55490;BME280;44029;52.956;4.772;2023-02-10T10:38:42;103603.09;;;9.43;100.00
55490;BME280;44029;52.956;4.772;2023-02-10T10:41:12;103610.97;;;9.46;100.00
55490;BME280;44029;52.956;4.772;2023-02-10T10:43:46;103606.81;;;9.58;100.00
55490;BME280;44029;52.956;4.772;2023-02-10T10:46:20;103608.56;;;9.43;100.00
55490;BME280;44029;52.956;4.772;2023-02-10T10:48:48;103603.47;;;9.32;100.00
55490;BME280;44029;52.956;4.772;2023-02-10T10:51:13;103606.34;;;9.46;100.00
55490;BME280;44029;52.956;4.772;2023-02-10T10:54:06;103608.47;;;9.76;100.00
55490;BME280;44029;52.956;4.772;2023-02-10T10:59:20;103585.34;;;9.86;100.00
55490;BME280;44029;52.956;4.772;2023-02-10T11:01:49;103583.78;;;9.84;100.00
55490;BME280;44029;52.956;4.772;2023-02-10T11:04:22;103594.16;;;10.05;100.00
55490;BME280;44029;52.956;4.772;2023-02-10T11:07:10;103595.72;;;10.31;100.00
55490;BME280;44029;52.956;4.772;2023-02-10T11:09:39;103601.81;;;10.10;100.00
55490;BME280;44029;52.956;4.772;2023-02-10T11:12:16;103602.53;;;10.03;100.00
55490;BME280;44029;52.956;4.772;2023-02-10T11:14:47;103613.31;;;10.05;100.00
55490;BME280;44029;52.956;4.772;2023-02-10T11:19:52;103589.03;;;10.02;100.00
55490;BME280;44029;52.956;4.772;2023-02-10T11:22:20;103601.78;;;9.78;100.00
55490;BME280;44029;52.956;4.772;2023-02-10T11:24:52;103576.00;;;10.04;100.00
55490;BME280;44029;52.956;4.772;2023-02-10T11:27:17;103581.56;;;9.87;100.00
55490;BME280;44029;52.956;4.772;2023-02-10T11:29:49;103574.28;;;10.03;100.00
55490;BME280;44029;52.956;4.772;2023-02-10T11:32:18;103573.84;;;9.91;100.00
55490;BME280;44029;52.956;4.772;2023-02-10T11:34:46;103569.59;;;9.80;100.00
55490;BME280;44029;52.956;4.772;2023-02-10T11:39:52;103576.13;;;9.71;100.00
55490;BME280;44029;52.956;4.772;2023-02-10T11:42:25;103561.03;;;9.83;100.00
55490;BME280;44029;52.956;4.772;2023-02-10T11:47:43;103558.81;;;9.39;100.00
55490;BME280;44029;52.956;4.772;2023-02-10T11:50:24;103565.25;;;9.55;100.00
55490;BME280;44029;52.956;4.772;2023-02-10T11:52:50;103568.66;;;9.57;100.00
55490;BME280;44029;52.956;4.772;2023-02-10T11:55:16;103560.94;;;9.68;100.00
55490;BME280;44029;52.956;4.772;2023-02-10T11:57:48;103548.53;;;9.89;100.00
55490;BME280;44029;52.956;4.772;2023-02-10T12:01:02;103541.38;;;9.80;100.00
55490;BME280;44029;52.956;4.772;2023-02-10T12:08:59;103539.66;;;10.10;100.00
55490;BME280;44029;52.956;4.772;2023-02-10T12:22:35;103521.47;;;9.94;100.00
55490;BME280;44029;52.956;4.772;2023-02-10T12:25:26;103506.88;;;10.02;100.00
55490;BME280;44029;52.956;4.772;2023-02-10T12:30:49;103493.94;;;9.87;100.00
55490;BME280;44029;52.956;4.772;2023-02-10T12:33:45;103505.72;;;9.88;100.00
55490;BME280;44029;52.956;4.772;2023-02-10T12:38:55;103487.56;;;10.18;100.00
55490;BME280;44029;52.956;4.772;2023-02-10T12:41:42;103468.16;;;10.28;100.00
55490;BME280;44029;52.956;4.772;2023-02-10T12:50:33;103476.00;;;10.08;100.00
55490;BME280;44029;52.956;4.772;2023-02-10T12:55:48;103481.91;;;9.97;100.00
55490;BME280;44029;52.956;4.772;2023-02-10T12:58:20;103477.34;;;9.89;100.00
55490;BME280;44029;52.956;4.772;2023-02-10T13:03:37;103459.38;;;9.86;100.00
55490;BME280;44029;52.956;4.772;2023-02-10T13:06:36;103446.72;;;9.85;100.00
55490;BME280;44029;52.956;4.772;2023-02-10T13:11:48;103449.53;;;9.77;100.00
55490;BME280;44029;52.956;4.772;2023-02-10T13:14:25;103455.50;;;9.81;100.00
55490;BME280;44029;52.956;4.772;2023-02-10T13:16:55;103458.41;;;9.79;100.00
55490;BME280;44029;52.956;4.772;2023-02-10T13:19:41;103471.69;;;9.91;100.00
55490;BME280;44029;52.956;4.772;2023-02-10T13:22:38;103470.28;;;10.18;100.00
55490;BME280;44029;52.956;4.772;2023-02-10T13:36:23;103429.19;;;9.72;100.00
55490;BME280;44029;52.956;4.772;2023-02-10T13:39:01;103438.75;;;9.76;100.00
55490;BME280;44029;52.956;4.772;2023-02-10T13:41:33;103446.66;;;9.94;100.00
55490;BME280;44029;52.956;4.772;2023-02-10T13:44:34;103436.56;;;9.94;100.00
55490;BME280;44029;52.956;4.772;2023-02-10T13:49:36;103421.41;;;9.83;100.00
55490;BME280;44029;52.956;4.772;2023-02-10T13:52:16;103431.09;;;9.94;100.00
55490;BME280;44029;52.956;4.772;2023-02-10T13:55:02;103421.34;;;9.92;100.00
55490;BME280;44029;52.956;4.772;2023-02-10T14:00:05;103411.47;;;9.82;100.00
55490;BME280;44029;52.956;4.772;2023-02-10T14:02:36;103421.19;;;9.31;100.00
55490;BME280;44029;52.956;4.772;2023-02-10T14:05:01;103417.38;;;9.40;100.00
55490;BME280;44029;52.956;4.772;2023-02-10T14:12:27;103392.94;;;9.38;100.00
55490;BME280;44029;52.956;4.772;2023-02-10T14:14:53;103385.28;;;9.34;100.00
55490;BME280;44029;52.956;4.772;2023-02-10T14:17:21;103381.97;;;9.15;100.00
55490;BME280;44029;52.956;4.772;2023-02-10T14:19:51;103382.72;;;9.32;100.00
55490;BME280;44029;52.956;4.772;2023-02-10T14:22:32;103380.25;;;9.45;100.00
55490;BME280;44029;52.956;4.772;2023-02-10T14:27:47;103395.63;;;9.15;100.00
55490;BME280;44029;52.956;4.772;2023-02-10T14:30:21;103390.00;;;9.17;100.00
55490;BME280;44029;52.956;4.772;2023-02-10T14:32:48;103396.19;;;9.11;100.00
55490;BME280;44029;52.956;4.772;2023-02-10T14:35:20;103371.50;;;9.19;100.00
55490;BME280;44029;52.956;4.772;2023-02-10T14:37:56;103364.03;;;9.13;100.00
55490;BME280;44029;52.956;4.772;2023-02-10T14:40:23;103363.31;;;9.19;100.00
55490;BME280;44029;52.956;4.772;2023-02-10T14:42:49;103372.25;;;9.04;100.00
55490;BME280;44029;52.956;4.772;2023-02-10T14:45:22;103354.13;;;9.12;100.00
55490;BME280;44029;52.956;4.772;2023-02-10T14:47:50;103344.91;;;9.04;100.00
55490;BME280;44029;52.956;4.772;2023-02-10T14:50:23;103362.81;;;8.76;100.00
55490;BME280;44029;52.956;4.772;2023-02-10T14:52:49;103349.09;;;8.92;100.00
55490;BME280;44029;52.956;4.772;2023-02-10T14:55:23;103366.28;;;9.01;100.00
55490;BME280;44029;52.956;4.772;2023-02-10T14:57:48;103358.31;;;8.91;100.00
55490;BME280;44029;52.956;4.772;2023-02-10T15:00:14;103361.69;;;9.01;100.00
55490;BME280;44029;52.956;4.772;2023-02-10T15:02:40;103361.72;;;8.93;100.00